Time;durP1;ratioP1;P1;durP2;ratioP2;P2;SDS_P1;SDS_P2;PMS_P1;PMS_P2;Temp;Humidity;BMP_temperature;BMP_pressure;BME280_temperature;BME280_humidity;BME280_pressure;Samples;Min_cycle;Max_cycle;Signal;HPM_P1;HPM_P2
2022/09/20 00:01:11;;;;;;;2.72;1.55;;;11.60;99.90;;;;;;5013858;28;20022;-83
2022/09/20 00:03:45;;;;;;;1.65;1.08;;;11.60;99.90;;;;;;5014791;28;20076;-83
2022/09/20 00:06:13;;;;;;;2.67;1.13;;;11.60;99.90;;;;;;5014316;28;20124;-84
2022/09/20 00:08:40;;;;;;;1.27;0.93;;;11.60;99.90;;;;;;5013713;28;20037;-84
2022/09/20 00:11:09;;;;;;;1.70;1.13;;;11.60;99.90;;;;;;5014777;28;20110;-84
2022/09/20 00:13:36;;;;;;;1.77;1.42;;;11.60;99.90;;;;;;5014744;28;20036;-82
2022/09/20 00:16:08;;;;;;;1.23;1.10;;;11.60;99.90;;;;;;5024129;28;20022;-85
2022/09/20 00:18:34;;;;;;;1.75;1.40;;;11.60;99.90;;;;;;5033989;28;20064;-86
2022/09/20 00:21:00;;;;;;;0.93;0.93;;;11.60;99.90;;;;;;5033391;28;20088;-83
2022/09/20 00:23:26;;;;;;;1.85;1.13;;;11.60;99.90;;;;;;5017259;28;20025;-84
2022/09/20 00:25:57;;;;;;;1.58;1.17;;;11.50;99.90;;;;;;4999417;28;20032;-84
2022/09/20 00:28:23;;;;;;;1.63;1.13;;;11.60;99.90;;;;;;4996183;28;20399;-83
2022/09/20 00:30:50;;;;;;;2.07;1.33;;;11.50;99.90;;;;;;5012564;28;20022;-85
2022/09/20 00:33:16;;;;;;;1.50;1.30;;;11.50;99.90;;;;;;5010776;28;20022;-83
2022/09/20 00:35:43;;;;;;;2.17;1.00;;;11.60;99.90;;;;;;5011815;28;20030;-90
2022/09/20 00:38:12;;;;;;;1.80;1.10;;;11.60;99.90;;;;;;4995927;28;20056;-83
2022/09/20 00:40:39;;;;;;;3.20;1.50;;;11.60;99.90;;;;;;4996784;28;20388;-81
2022/09/20 00:43:05;;;;;;;1.50;1.20;;;11.60;99.90;;;;;;5014373;28;20057;-81
2022/09/20 00:45:31;;;;;;;1.92;1.30;;;11.60;99.90;;;;;;5015221;28;20263;-81
2022/09/20 00:47:58;;;;;;;2.40;1.65;;;11.60;99.90;;;;;;5016380;28;20112;-82
2022/09/20 00:50:34;;;;;;;2.72;1.48;;;11.60;99.90;;;;;;4999645;28;20029;-81
2022/09/20 00:53:12;;;;;;;1.52;1.38;;;11.50;99.90;;;;;;4997406;28;20486;-83
2022/09/20 00:55:49;;;;;;;2.92;1.52;;;11.50;99.90;;;;;;4997288;28;20113;-82
2022/09/20 00:58:15;;;;;;;3.28;1.05;;;11.60;99.90;;;;;;5014633;28;20026;-81
2022/09/20 01:00:43;;;;;;;2.15;1.52;;;11.50;99.90;;;;;;5014507;28;20037;-82
2022/09/20 01:03:11;;;;;;;1.63;1.30;;;11.60;99.90;;;;;;5014444;28;20026;-82
2022/09/20 01:05:38;;;;;;;1.25;1.00;;;11.60;99.90;;;;;;5000030;28;20487;-82
2022/09/20 01:08:05;;;;;;;1.27;1.17;;;11.60;99.90;;;;;;5025353;28;20022;-82
2022/09/20 01:10:31;;;;;;;2.20;1.33;;;11.60;99.90;;;;;;5020458;28;20391;-81
2022/09/20 01:12:57;;;;;;;2.85;1.20;;;11.60;99.90;;;;;;5014443;28;20096;-80
2022/09/20 01:15:26;;;;;;;3.70;1.20;;;11.60;99.90;;;;;;5014781;28;20097;-81
2022/09/20 01:17:54;;;;;;;2.53;1.02;;;11.60;99.90;;;;;;5014169;28;20112;-83
2022/09/20 01:20:28;;;;;;;3.30;1.17;;;11.60;99.90;;;;;;4952917;28;1355768;-89
2022/09/20 01:23:30;;;;;;;3.42;1.20;;;11.60;99.90;;;;;;5021853;28;20090;-87
2022/09/20 01:26:11;;;;;;;1.88;1.00;;;11.70;99.90;;;;;;5029971;28;20030;-87
2022/09/20 01:28:41;;;;;;;1.42;1.15;;;11.70;99.90;;;;;;5022333;28;20034;-89
2022/09/20 01:31:12;;;;;;;2.03;1.00;;;11.70;99.90;;;;;;5028199;28;20022;-88
2022/09/20 01:34:17;;;;;;;3.00;1.48;;;11.70;99.90;;;;;;5011654;28;20026;-86
2022/09/20 01:36:47;;;;;;;1.52;1.23;;;11.70;99.90;;;;;;4962097;28;20045;-88
2022/09/20 01:39:21;;;;;;;1.23;1.08;;;11.60;99.90;;;;;;5003166;28;20121;-87
2022/09/20 01:41:58;;;;;;;1.17;0.98;;;11.50;99.90;;;;;;5019381;28;20383;-86
2022/09/20 01:44:37;;;;;;;4.82;1.40;;;11.50;99.90;;;;;;5030231;28;20014;-86
2022/09/20 01:47:33;;;;;;;1.55;0.98;;;11.50;99.90;;;;;;5015954;28;20084;-84
2022/09/20 01:50:18;;;;;;;1.98;1.50;;;11.40;99.90;;;;;;5015753;28;20044;-87
2022/09/20 01:53:13;;;;;;;1.40;1.17;;;11.40;99.90;;;;;;5019470;28;20503;-88
2022/09/20 01:55:54;;;;;;;1.75;1.10;;;11.40;99.90;;;;;;5005013;28;20018;-87
2022/09/20 01:58:41;;;;;;;1.35;1.00;;;11.30;99.90;;;;;;5023534;28;20029;-87
2022/09/20 02:01:35;;;;;;;4.22;1.40;;;11.30;99.90;;;;;;5020092;28;20022;-87
2022/09/20 02:04:20;;;;;;;1.15;1.05;;;11.30;99.90;;;;;;5016633;28;20476;-87
2022/09/20 02:07:16;;;;;;;1.80;1.23;;;11.20;99.90;;;;;;4999631;28;20363;-87
2022/09/20 02:10:06;;;;;;;1.30;0.98;;;11.20;99.90;;;;;;5016182;28;20125;-88
2022/09/20 02:12:50;;;;;;;1.77;1.13;;;11.20;99.90;;;;;;5012878;28;20026;-89
2022/09/20 02:15:46;;;;;;;1.58;1.15;;;11.30;99.90;;;;;;5016497;28;20053;-89
2022/09/20 02:18:20;;;;;;;2.20;1.65;;;11.30;99.90;;;;;;5005309;28;20033;-87
2022/09/20 02:20:55;;;;;;;3.10;1.30;;;11.30;99.90;;;;;;5016070;28;20038;-87
2022/09/20 02:23:43;;;;;;;4.05;1.45;;;11.20;99.90;;;;;;4999114;28;20029;-88
2022/09/20 02:26:21;;;;;;;1.85;1.33;;;11.20;99.90;;;;;;5015668;28;20044;-86
2022/09/20 02:29:14;;;;;;;1.52;1.10;;;11.20;99.90;;;;;;4991475;28;20520;-87
2022/09/20 02:32:11;;;;;;;1.98;1.67;;;11.30;99.90;;;;;;4986090;28;20026;-88
2022/09/20 02:34:45;;;;;;;2.75;1.13;;;11.30;99.90;;;;;;5016133;28;20022;-88
2022/09/20 02:37:30;;;;;;;2.15;1.45;;;11.40;99.90;;;;;;5016318;28;20049;-89
2022/09/20 02:40:37;;;;;;;1.52;1.20;;;11.50;99.90;;;;;;4974180;28;20030;-87
2022/09/20 02:43:09;;;;;;;1.98;1.10;;;11.50;99.90;;;;;;4989672;28;20106;-89
2022/09/20 02:45:53;;;;;;;1.40;1.20;;;11.50;99.90;;;;;;4981260;28;20038;-88
2022/09/20 02:48:26;;;;;;;2.85;1.20;;;11.60;99.90;;;;;;4978824;28;20022;-87
2022/09/20 02:51:01;;;;;;;3.67;1.60;;;11.60;99.90;;;;;;4984935;28;20479;-87
2022/09/20 02:53:44;;;;;;;5.00;1.73;;;11.70;99.90;;;;;;4992590;28;20468;-88
2022/09/20 02:56:53;;;;;;;2.20;1.05;;;11.60;99.90;;;;;;4981105;28;20039;-87
2022/09/20 02:59:44;;;;;;;3.92;1.67;;;11.70;99.90;;;;;;4968220;28;20015;-86
2022/09/20 03:02:28;;;;;;;1.60;1.50;;;11.70;99.90;;;;;;4966106;28;20065;-85
2022/09/20 03:05:16;;;;;;;1.27;1.08;;;11.70;99.90;;;;;;4989085;28;20154;-86
2022/09/20 03:08:18;;;;;;;2.45;1.45;;;11.70;99.90;;;;;;4981408;28;20031;-87
2022/09/20 03:11:06;;;;;;;3.47;1.60;;;11.70;99.90;;;;;;4988951;28;20432;-86
2022/09/20 03:14:08;;;;;;;1.75;1.45;;;11.70;99.90;;;;;;4976176;28;20031;-88
2022/09/20 03:16:48;;;;;;;2.67;1.48;;;11.70;99.90;;;;;;4975858;28;20128;-87
2022/09/20 03:19:44;;;;;;;2.03;1.30;;;11.70;99.90;;;;;;4976436;28;20392;-87
2022/09/20 03:22:37;;;;;;;1.50;1.40;;;11.80;99.90;;;;;;4991760;28;20038;-89
2022/09/20 03:25:25;;;;;;;2.42;1.35;;;11.70;99.90;;;;;;4981477;28;20035;-90
2022/09/20 03:28:08;;;;;;;;;;;11.70;99.90;;;;;;4971733;28;20035;-92
2022/09/20 03:31:17;;;;;;;2.80;1.33;;;11.70;99.90;;;;;;4993216;28;19951;-88
2022/09/20 03:33:57;;;;;;;4.82;2.15;;;11.70;99.90;;;;;;5020247;28;20067;-89
2022/09/20 03:37:09;;;;;;;3.53;1.60;;;11.70;99.90;;;;;;5006127;28;20014;-88
2022/09/20 03:39:54;;;;;;;1.88;1.25;;;11.70;99.90;;;;;;4987681;28;20539;-88
2022/09/20 03:42:28;;;;;;;1.63;1.20;;;11.70;99.90;;;;;;5017075;28;20762;-89
2022/09/20 03:45:12;;;;;;;1.83;1.13;;;11.80;99.90;;;;;;5003748;28;20018;-88
2022/09/20 03:48:16;;;;;;;1.63;1.23;;;11.80;99.90;;;;;;4987180;28;20033;-87
2022/09/20 03:50:50;;;;;;;1.27;1.17;;;11.80;99.90;;;;;;5006205;28;20040;-89
2022/09/20 03:53:39;;;;;;;1.80;1.45;;;11.80;99.90;;;;;;4999825;28;20033;-87
2022/09/20 03:56:42;;;;;;;2.28;1.67;;;11.80;99.90;;;;;;4999031;28;20041;-87
2022/09/20 03:59:16;;;;;;;3.17;1.70;;;11.80;99.90;;;;;;5012853;28;20026;-87
2022/09/20 04:02:16;;;;;;;1.70;1.38;;;11.80;99.90;;;;;;5007746;28;20026;-89
2022/09/20 04:04:48;;;;;;;2.08;1.27;;;11.80;99.90;;;;;;5013490;28;20091;-83
2022/09/20 04:07:53;;;;;;;2.03;1.65;;;11.80;99.90;;;;;;4995974;28;20030;-86
2022/09/20 04:10:45;;;;;;;2.03;1.65;;;11.80;99.90;;;;;;4974316;28;20066;-90
2022/09/20 04:13:46;;;;;;;2.15;1.40;;;11.80;99.90;;;;;;5015333;28;20033;-89
2022/09/20 04:16:41;;;;;;;1.45;1.30;;;11.80;99.90;;;;;;4990898;28;20547;-87
2022/09/20 04:19:17;;;;;;;2.65;1.48;;;11.80;99.90;;;;;;4997731;28;20030;-86
2022/09/20 04:21:56;;;;;;;2.40;1.80;;;11.80;99.90;;;;;;5021723;28;20137;-87
2022/09/20 04:24:32;;;;;;;3.58;2.00;;;11.70;99.90;;;;;;5007509;28;20032;-86
2022/09/20 04:27:24;;;;;;;1.77;1.63;;;11.70;99.90;;;;;;5011842;28;20026;-87
2022/09/20 04:30:04;;;;;;;2.22;1.40;;;11.80;99.90;;;;;;5001536;28;20056;-87
2022/09/20 04:32:53;;;;;;;2.20;1.45;;;11.90;99.90;;;;;;5031574;28;20009;-87
2022/09/20 04:38:16;;;;;;;1.42;1.27;;;11.80;99.90;;;;;;5007186;28;20041;-86
2022/09/20 04:40:59;;;;;;;4.25;1.65;;;11.80;99.90;;;;;;4999963;28;20034;-87
2022/09/20 04:44:10;;;;;;;2.58;1.70;;;11.80;99.90;;;;;;5025026;28;20014;-86
2022/09/20 04:46:54;;;;;;;3.88;1.80;;;11.90;99.90;;;;;;4982985;28;20106;-89
2022/09/20 04:49:57;;;;;;;2.50;1.70;;;11.90;99.90;;;;;;5010686;28;20061;-87
2022/09/20 04:52:26;;;;;;;2.65;1.98;;;12.00;99.90;;;;;;5004795;28;20064;-88
2022/09/20 04:55:30;;;;;;;2.17;1.70;;;11.90;99.90;;;;;;5016812;28;20026;-88
2022/09/20 04:58:20;;;;;;;3.63;2.20;;;11.90;99.90;;;;;;4999003;28;20053;-87
2022/09/20 05:01:32;;;;;;;2.70;2.13;;;11.90;99.90;;;;;;5001685;28;20073;-86
2022/09/20 05:04:39;;;;;;;2.85;2.20;;;11.90;99.90;;;;;;4941160;29;20023;-88
2022/09/20 05:07:55;;;;;;;2.13;1.52;;;11.90;99.90;;;;;;4960916;28;20504;-88
2022/09/20 05:10:49;;;;;;;2.40;2.00;;;12.00;99.90;;;;;;4960839;28;20081;-88
2022/09/20 05:13:28;;;;;;;2.85;1.58;;;11.90;99.90;;;;;;5019304;28;20383;-89
2022/09/20 05:16:03;;;;;;;4.22;2.08;;;12.00;99.90;;;;;;4998910;28;20061;-88
2022/09/20 05:19:04;;;;;;;2.78;1.70;;;12.10;99.90;;;;;;4997965;28;20034;-89
2022/09/20 05:21:29;;;;;;;3.67;1.98;;;12.10;99.90;;;;;;4990558;28;20054;-88
2022/09/20 05:24:08;;;;;;;4.57;2.33;;;12.20;99.90;;;;;;5020142;28;20029;-88
2022/09/20 05:27:21;;;;;;;3.97;2.05;;;12.30;99.90;;;;;;5020089;28;20025;-87
2022/09/20 05:29:58;;;;;;;5.80;2.00;;;12.40;99.90;;;;;;4958409;28;20042;-89
2022/09/20 05:32:33;;;;;;;2.65;2.05;;;12.50;99.90;;;;;;5017861;28;20018;-89
2022/09/20 05:35:31;;;;;;;6.82;2.17;;;12.60;99.90;;;;;;5019300;28;20021;-87
2022/09/20 05:38:03;;;;;;;6.18;2.00;;;12.70;99.90;;;;;;5019959;28;20041;-88
2022/09/20 05:41:03;;;;;;;2.40;2.00;;;12.80;99.90;;;;;;5032718;28;20459;-87
2022/09/20 05:44:06;;;;;;;3.22;2.15;;;12.90;99.90;;;;;;5011562;28;20120;-89
2022/09/20 05:46:53;;;;;;;2.10;1.90;;;13.00;99.60;;;;;;4980076;28;20140;-90
2022/09/20 05:49:33;;;;;;;3.58;1.73;;;13.00;99.20;;;;;;5004073;28;20106;-89
2022/09/20 05:52:29;;;;;;;2.65;2.17;;;13.00;99.10;;;;;;5023715;28;20021;-88
2022/09/20 05:55:17;;;;;;;4.20;2.25;;;13.00;99.00;;;;;;5008581;28;20030;-89
2022/09/20 05:58:13;;;;;;;3.10;1.73;;;13.00;98.90;;;;;;5012925;28;20010;-87
2022/09/20 06:00:53;;;;;;;2.53;1.90;;;13.10;98.70;;;;;;5015465;28;20022;-87
2022/09/20 06:03:41;;;;;;;2.80;1.90;;;13.20;98.40;;;;;;5016357;28;20034;-86
2022/09/20 06:06:22;;;;;;;5.75;1.88;;;13.30;98.10;;;;;;5025476;28;20028;-87
2022/09/20 06:08:51;;;;;;;3.67;2.15;;;13.40;97.90;;;;;;5006642;28;20105;-88
2022/09/20 06:11:20;;;;;;;1.92;1.70;;;13.60;97.70;;;;;;5007441;28;20057;-90
2022/09/20 06:14:02;;;;;;;4.07;1.60;;;13.80;97.10;;;;;;5025432;28;20037;-88
2022/09/20 06:17:08;;;;;;;2.33;1.38;;;13.80;96.90;;;;;;4997124;28;20033;-89
2022/09/20 06:19:45;;;;;;;3.25;1.70;;;13.80;96.30;;;;;;4955431;28;20060;-88
2022/09/20 06:22:42;;;;;;;2.67;1.55;;;13.70;96.30;;;;;;5009792;28;20044;-88
2022/09/20 06:25:08;;;;;;;2.45;1.60;;;13.70;96.60;;;;;;5015952;28;20109;-89
2022/09/20 06:27:40;;;;;;;4.43;2.00;;;13.60;95.90;;;;;;5026189;28;20022;-86
2022/09/20 06:30:14;;;;;;;3.75;2.00;;;13.60;96.30;;;;;;5031806;28;20034;-90
2022/09/20 06:33:20;;;;;;;3.65;2.03;;;13.50;96.40;;;;;;5033104;28;20456;-89
2022/09/20 06:35:55;;;;;;;2.90;1.63;;;13.60;96.40;;;;;;4926047;29;20039;-87
2022/09/20 06:41:36;;;;;;;2.50;1.83;;;13.60;96.10;;;;;;4946778;29;20062;-90
2022/09/20 06:44:03;;;;;;;4.07;2.15;;;13.70;96.10;;;;;;4939145;29;20036;-91
2022/09/20 06:46:34;;;;;;;3.33;1.88;;;13.80;95.80;;;;;;4947094;29;20409;-88
2022/09/20 06:49:01;;;;;;;5.07;2.47;;;14.00;95.50;;;;;;4948198;29;20133;-89
2022/09/20 06:51:32;;;;;;;2.13;1.52;;;14.10;95.30;;;;;;4954036;29;20115;-88
2022/09/20 06:53:58;;;;;;;2.42;1.88;;;14.20;94.60;;;;;;4943469;29;20028;-87
2022/09/20 06:56:29;;;;;;;6.35;2.35;;;14.10;94.20;;;;;;4941849;29;20043;-86
2022/09/20 06:58:55;;;;;;;4.00;1.70;;;14.20;94.50;;;;;;4938076;29;20169;-85
2022/09/20 07:01:22;;;;;;;3.03;1.50;;;14.30;93.90;;;;;;4936404;29;20070;-89
2022/09/20 07:03:48;;;;;;;2.78;1.95;;;14.40;93.40;;;;;;4939293;29;20032;-90
2022/09/20 07:06:16;;;;;;;2.42;1.60;;;14.40;93.10;;;;;;4939918;29;20036;-90
2022/09/20 07:08:43;;;;;;;8.27;1.98;;;14.50;92.60;;;;;;4951121;28;20032;-87
2022/09/20 07:11:15;;;;;;;2.88;1.80;;;14.90;92.20;;;;;;5013562;28;20029;-86
2022/09/20 07:13:44;;;;;;;2.08;1.60;;;15.10;91.90;;;;;;4991530;28;20061;-87
2022/09/20 07:16:13;;;;;;;3.38;1.85;;;15.60;91.10;;;;;;4993565;28;20029;-87
2022/09/20 07:18:42;;;;;;;4.32;1.88;;;16.10;89.60;;;;;;5006855;28;20080;-88
2022/09/20 07:21:11;;;;;;;5.35;1.77;;;16.70;86.60;;;;;;5023118;28;20100;-87
2022/09/20 07:23:37;;;;;;;2.90;1.80;;;17.70;82.50;;;;;;5021236;28;20054;-88
2022/09/20 07:26:04;;;;;;;3.70;1.48;;;18.20;79.80;;;;;;5002228;28;20022;-89
2022/09/20 07:28:33;;;;;;;1.80;1.30;;;18.60;77.40;;;;;;5004799;28;20030;-88
2022/09/20 07:31:00;;;;;;;1.80;1.38;;;18.40;75.10;;;;;;5002131;28;20061;-89
2022/09/20 07:33:26;;;;;;;3.83;1.65;;;18.10;76.20;;;;;;5001524;28;20033;-88
2022/09/20 07:35:54;;;;;;;2.75;1.70;;;17.60;77.80;;;;;;5021129;28;20088;-89
2022/09/20 07:38:21;;;;;;;2.75;1.90;;;17.30;77.80;;;;;;5027071;28;20026;-87
2022/09/20 07:40:59;;;;;;;2.33;1.80;;;17.00;77.80;;;;;;5032075;28;20041;-88
2022/09/20 07:43:26;;;;;;;2.88;2.17;;;16.70;78.90;;;;;;5012032;28;20022;-89
2022/09/20 07:45:54;;;;;;;2.60;1.65;;;16.30;80.40;;;;;;5002556;28;20048;-87
2022/09/20 07:48:31;;;;;;;4.32;1.80;;;16.20;80.80;;;;;;5002323;28;20421;-88
2022/09/20 07:51:01;;;;;;;;;;;15.90;81.40;;;;;;5020337;28;20022;-88
2022/09/20 07:53:27;;;;;;;2.67;1.92;;;15.70;82.30;;;;;;5020318;28;19906;-87
2022/09/20 07:55:58;;;;;;;4.57;2.45;;;15.50;83.10;;;;;;5005558;28;20041;-89
2022/09/20 07:58:24;;;;;;;5.95;2.45;;;15.60;84.00;;;;;;5021103;28;20057;-89
2022/09/20 08:00:58;;;;;;;5.35;2.30;;;16.00;83.10;;;;;;5029735;28;20033;-91
2022/09/20 08:03:25;;;;;;;4.28;2.78;;;16.30;82.40;;;;;;5012907;28;20041;-88
2022/09/20 08:05:57;;;;;;;3.13;1.50;;;17.00;81.00;;;;;;5027437;28;20022;-89
2022/09/20 08:08:23;;;;;;;2.38;1.50;;;17.60;78.10;;;;;;5024234;28;20072;-86
2022/09/20 08:10:49;;;;;;;5.25;1.83;;;18.40;75.70;;;;;;5025015;28;20021;-87
2022/09/20 08:13:16;;;;;;;4.38;1.92;;;18.70;73.80;;;;;;4999638;28;20102;-87
2022/09/20 08:15:42;;;;;;;4.32;2.67;;;18.80;72.20;;;;;;5029511;28;20064;-89
2022/09/20 08:18:13;;;;;;;3.25;1.80;;;18.70;73.20;;;;;;5017760;28;20010;-86
2022/09/20 08:20:41;;;;;;;3.17;1.92;;;19.30;70.90;;;;;;5026103;28;20411;-87
2022/09/20 08:23:08;;;;;;;5.07;2.53;;;19.30;68.70;;;;;;5028721;28;20032;-89
2022/09/20 08:25:34;;;;;;;4.20;1.95;;;18.70;69.90;;;;;;4996296;28;20041;-87
2022/09/20 08:28:01;;;;;;;2.65;1.63;;;19.40;71.00;;;;;;5015642;28;20020;-89
2022/09/20 08:30:28;;;;;;;2.20;1.40;;;20.10;68.10;;;;;;5018306;28;20030;-87
2022/09/20 08:32:54;;;;;;;3.20;1.50;;;20.00;64.40;;;;;;5001775;28;20042;-88
2022/09/20 08:35:25;;;;;;;3.47;1.67;;;20.00;63.70;;;;;;5013616;28;20030;-87
2022/09/20 08:37:54;;;;;;;3.22;1.98;;;20.60;64.30;;;;;;5010290;28;20295;-87
2022/09/20 08:40:23;;;;;;;2.05;1.67;;;21.30;61.60;;;;;;5011607;28;20487;-90
2022/09/20 08:42:53;;;;;;;3.22;2.28;;;21.20;60.20;;;;;;4996350;28;20037;-87
2022/09/20 08:45:23;;;;;;;2.22;1.58;;;20.50;61.30;;;;;;5014570;28;20022;-89
2022/09/20 08:47:54;;;;;;;2.75;1.40;;;19.50;63.20;;;;;;5031714;28;20042;-89
2022/09/20 08:50:20;;;;;;;2.85;1.55;;;18.90;64.90;;;;;;5024691;28;20407;-87
2022/09/20 08:52:49;;;;;;;2.72;2.13;;;18.20;66.10;;;;;;5003962;28;20431;-89
2022/09/20 08:55:26;;;;;;;2.67;1.63;;;17.60;69.10;;;;;;5020870;28;20024;-89
2022/09/20 08:57:55;;;;;;;4.55;1.95;;;17.40;69.50;;;;;;5023509;28;20025;-88
2022/09/20 09:00:30;;;;;;;1.92;1.60;;;17.10;70.60;;;;;;5012584;28;20526;-89
2022/09/20 09:02:59;;;;;;;2.15;1.48;;;16.80;71.50;;;;;;5015571;28;20059;-88
2022/09/20 09:05:40;;;;;;;2.42;2.00;;;16.60;71.80;;;;;;5014111;28;20025;-87
2022/09/20 09:08:20;;;;;;;5.53;1.90;;;16.50;73.30;;;;;;5008261;28;20026;-87
2022/09/20 09:11:17;;;;;;;4.30;2.00;;;16.40;73.40;;;;;;5011598;28;20038;-90
2022/09/20 09:14:01;;;;;;;2.20;1.52;;;16.40;74.30;;;;;;4990618;28;20041;-87
2022/09/20 09:16:33;;;;;;;6.10;1.70;;;16.50;74.70;;;;;;5023296;28;20030;-89
2022/09/20 09:19:42;;;;;;;5.90;2.63;;;16.60;75.00;;;;;;5019720;28;20037;-89
2022/09/20 09:22:16;;;;;;;3.20;2.30;;;16.70;74.70;;;;;;5019944;28;20018;-87
2022/09/20 09:24:43;;;;;;;5.03;2.40;;;16.80;75.20;;;;;;5013573;28;20026;-89
2022/09/20 09:27:18;;;;;;;3.33;1.92;;;16.70;74.60;;;;;;5026738;28;20018;-89
2022/09/20 09:30:05;;;;;;;3.72;2.35;;;16.50;74.60;;;;;;5013089;28;20040;-86
2022/09/20 09:32:32;;;;;;;;;;;16.20;75.60;;;;;;5014982;28;20022;-88
2022/09/20 09:35:20;;;;;;;4.63;2.25;;;16.00;76.20;;;;;;5025332;28;19933;-89
2022/09/20 09:37:55;;;;;;;5.50;2.85;;;16.00;77.30;;;;;;5009773;28;20026;-90
2022/09/20 09:40:22;;;;;;;4.28;1.63;;;15.90;77.60;;;;;;5006820;28;20037;-89
2022/09/20 09:42:50;;;;;;;4.78;2.83;;;15.90;77.80;;;;;;5028477;28;20010;-89
2022/09/20 09:45:42;;;;;;;3.72;1.83;;;15.80;78.20;;;;;;4993365;28;20476;-91
2022/09/20 09:48:27;;;;;;;6.38;2.92;;;15.80;78.50;;;;;;5020336;28;20085;-90
2022/09/20 09:51:14;;;;;;;4.80;2.10;;;15.80;78.70;;;;;;5025659;28;20038;-89
2022/09/20 09:53:41;;;;;;;5.93;2.17;;;15.80;78.30;;;;;;5012083;28;20104;-90
2022/09/20 09:56:26;;;;;;;;;;;15.80;78.60;;;;;;5007848;28;20034;-91
2022/09/20 09:59:20;;;;;;;3.65;2.13;;;15.80;78.70;;;;;;5021789;28;19999;-89
2022/09/20 10:02:23;;;;;;;3.63;1.67;;;15.70;79.10;;;;;;5006789;28;20061;-89
2022/09/20 10:05:01;;;;;;;5.78;2.00;;;15.60;79.60;;;;;;5032117;28;20124;-90
2022/09/20 10:07:35;;;;;;;6.35;1.40;;;15.50;80.20;;;;;;5021028;28;20036;-90
2022/09/20 10:10:14;;;;;;;2.65;1.55;;;15.40;80.90;;;;;;5008088;28;20038;-89
2022/09/20 10:13:08;;;;;;;6.25;2.53;;;15.30;81.80;;;;;;5012113;28;20426;-89
2022/09/20 10:15:49;;;;;;;4.50;2.05;;;15.30;82.40;;;;;;5007149;28;20032;-90
2022/09/20 10:18:21;;;;;;;3.50;2.60;;;15.40;82.00;;;;;;5024725;28;20017;-88
2022/09/20 10:21:23;;;;;;;3.22;1.65;;;15.50;81.80;;;;;;5022397;28;20042;-88
2022/09/20 10:24:08;;;;;;;5.43;2.10;;;15.70;81.30;;;;;;5005266;28;20041;-88
2022/09/20 10:27:02;;;;;;;5.20;2.00;;;15.90;80.80;;;;;;5005133;28;20030;-89
2022/09/20 10:29:56;;;;;;;3.22;1.50;;;15.90;79.60;;;;;;4990593;28;20026;-89
2022/09/20 10:33:00;;;;;;;3.75;1.80;;;15.90;78.40;;;;;;5008815;28;20102;-89
2022/09/20 10:35:35;;;;;;;6.50;3.28;;;15.70;79.90;;;;;;5008146;28;20113;-87
2022/09/20 10:38:10;;;;;;;3.88;2.42;;;15.90;79.60;;;;;;5006591;28;20037;-89
2022/09/20 10:43:40;;;;;;;2.45;1.70;;;16.30;77.50;;;;;;5012093;28;20041;-88
2022/09/20 10:46:32;;;;;;;4.50;2.38;;;16.60;76.90;;;;;;5006272;28;20049;-87
2022/09/20 10:49:13;;;;;;;2.58;1.67;;;17.00;76.30;;;;;;5002788;28;20034;-91
2022/09/20 10:52:08;;;;;;;2.25;1.63;;;17.40;74.40;;;;;;5011168;28;20041;-92
2022/09/20 10:54:40;;;;;;;4.70;2.25;;;17.70;72.60;;;;;;4947025;29;20035;-87
2022/09/20 10:57:47;;;;;;;4.72;2.78;;;17.60;71.90;;;;;;4966824;29;20063;-89
2022/09/20 11:00:32;;;;;;;6.57;3.67;;;17.50;72.60;;;;;;4966294;28;20027;-90
2022/09/20 11:03:22;;;;;;;3.15;2.20;;;17.30;72.80;;;;;;4945358;29;20138;-89
2022/09/20 11:06:16;;;;;;;2.50;2.08;;;17.20;73.10;;;;;;4963774;29;20091;-88
2022/09/20 11:08:49;;;;;;;4.95;3.33;;;17.00;73.80;;;;;;4968134;29;20039;-88
2022/09/20 11:11:22;;;;;;;4.43;2.35;;;17.00;73.70;;;;;;4969827;28;20117;-88
2022/09/20 11:14:20;;;;;;;10.05;4.60;;;16.90;74.10;;;;;;4960469;29;20094;-87
2022/09/20 11:16:53;;;;;;;6.60;3.83;;;17.00;74.60;;;;;;4950836;28;20095;-89
2022/09/20 11:19:33;;;;;;;4.13;2.17;;;17.00;73.80;;;;;;4951002;28;20147;-88
2022/09/20 11:22:20;;;;;;;3.42;2.78;;;16.90;74.20;;;;;;4955591;28;20043;-88
2022/09/20 11:25:14;;;;;;;2.42;2.05;;;16.70;75.20;;;;;;4952605;29;20838;-88
2022/09/20 11:28:08;;;;;;;6.50;3.80;;;16.30;76.20;;;;;;4976410;28;20035;-89
2022/09/20 11:30:45;;;;;;;7.43;2.80;;;16.10;77.50;;;;;;4971182;28;20155;-89
2022/09/20 11:33:20;;;;;;;4.83;2.17;;;16.10;77.90;;;;;;5017162;28;20034;-90
2022/09/20 11:35:54;;;;;;;7.80;4.20;;;16.10;77.60;;;;;;5012513;28;20044;-88
2022/09/20 11:38:23;;;;;;;6.85;2.85;;;16.00;78.30;;;;;;5034502;28;20025;-90
2022/09/20 11:41:38;;;;;;;5.32;1.98;;;15.80;78.60;;;;;;5011943;28;20025;-87
2022/09/20 11:44:10;;;;;;;4.90;2.10;;;15.60;79.10;;;;;;5003471;28;20042;-89
2022/09/20 11:46:51;;;;;;;3.95;1.60;;;15.40;80.00;;;;;;5007644;28;20026;-88
2022/09/20 11:50:04;;;;;;;2.90;1.67;;;15.30;80.40;;;;;;5026908;28;20034;-88
2022/09/20 11:52:53;;;;;;;4.57;2.13;;;15.20;81.10;;;;;;4988085;28;20034;-89
2022/09/20 11:55:51;;;;;;;5.28;2.55;;;15.20;81.50;;;;;;5025789;28;20022;-89
2022/09/20 11:58:21;;;;;;;3.30;1.92;;;15.30;81.70;;;;;;5020083;28;20029;-88
2022/09/20 12:00:50;;;;;;;4.38;1.75;;;15.40;81.00;;;;;;5008800;28;20018;-89
2022/09/20 12:03:37;;;;;;;6.13;3.80;;;15.50;80.90;;;;;;5015096;28;20026;-88
2022/09/20 12:06:26;;;;;;;5.88;2.05;;;15.70;80.50;;;;;;5023766;28;20105;-88
2022/09/20 12:08:57;;;;;;;5.18;2.25;;;15.70;79.60;;;;;;5014550;28;20034;-91
2022/09/20 12:11:40;;;;;;;5.25;2.78;;;15.70;79.70;;;;;;5025564;28;20089;-91
2022/09/20 12:14:18;;;;;;;2.92;2.33;;;15.90;79.90;;;;;;5007537;28;20863;-89
2022/09/20 12:16:47;;;;;;;3.15;2.13;;;16.10;78.90;;;;;;5013519;28;20010;-90
2022/09/20 12:19:45;;;;;;;4.25;2.40;;;16.20;78.00;;;;;;5015981;28;20033;-89
2022/09/20 12:22:15;;;;;;;4.07;1.95;;;16.30;78.10;;;;;;4974188;28;20065;-91
2022/09/20 12:24:48;;;;;;;4.85;2.88;;;16.10;77.70;;;;;;5031804;28;20055;-89
2022/09/20 12:27:26;;;;;;;3.67;2.35;;;15.90;78.90;;;;;;5009516;28;20113;-88
2022/09/20 12:30:20;;;;;;;2.85;2.03;;;15.90;78.70;;;;;;5007753;28;20037;-90
2022/09/20 12:32:53;;;;;;;4.25;2.38;;;15.80;78.60;;;;;;5024734;28;20353;-88
2022/09/20 12:35:35;;;;;;;3.45;3.03;;;15.70;79.20;;;;;;5024901;28;20022;-89
2022/09/20 12:38:19;;;;;;;7.68;3.55;;;15.60;80.40;;;;;;5010451;28;20087;-89
2022/09/20 12:41:21;;;;;;;2.90;2.38;;;15.80;80.50;;;;;;5028051;28;20034;-90
2022/09/20 12:44:22;;;;;;;4.15;2.50;;;15.90;79.90;;;;;;5027634;28;20022;-89
2022/09/20 12:47:10;;;;;;;3.63;2.70;;;15.90;80.00;;;;;;5026323;28;20077;-89
2022/09/20 12:52:57;;;;;;;6.13;2.38;;;15.90;80.10;;;;;;5013285;28;20046;-88
2022/09/20 12:55:35;;;;;;;6.43;2.72;;;15.90;79.40;;;;;;5022695;28;20025;-88
2022/09/20 12:58:13;;;;;;;3.67;2.60;;;15.80;80.20;;;;;;5012271;28;20049;-90
2022/09/20 13:00:44;;;;;;;4.72;3.28;;;15.70;80.00;;;;;;5001247;28;20017;-87
2022/09/20 13:03:33;;;;;;;6.60;2.97;;;15.60;80.70;;;;;;5011820;28;20041;-89
2022/09/20 13:06:05;;;;;;;6.53;2.95;;;15.60;80.90;;;;;;5033950;28;20030;-88
2022/09/20 13:08:47;;;;;;;4.97;3.60;;;15.50;80.80;;;;;;5035972;28;20029;-88
2022/09/20 13:11:19;;;;;;;8.40;3.05;;;15.50;81.10;;;;;;5022351;28;20006;-89
2022/09/20 13:14:08;;;;;;;11.18;4.72;;;15.50;81.20;;;;;;5039421;28;20065;-90
2022/09/20 13:16:49;;;;;;;4.07;2.88;;;15.50;81.60;;;;;;5032529;28;20082;-87
2022/09/20 13:19:28;;;;;;;5.95;2.40;;;15.40;81.10;;;;;;5014539;28;20030;-88
2022/09/20 13:22:02;;;;;;;6.60;2.13;;;15.20;81.10;;;;;;5030491;28;20034;-89
2022/09/20 13:24:36;;;;;;;3.92;2.50;;;15.10;81.50;;;;;;4995300;28;20026;-89
2022/09/20 13:27:09;;;;;;;9.73;7.38;;;15.00;82.10;;;;;;5005848;28;20432;-90
2022/09/20 13:29:39;;;;;;;12.63;8.48;;;15.00;82.70;;;;;;4994250;28;20098;-87
2022/09/20 13:32:22;;;;;;;4.57;3.60;;;15.00;83.00;;;;;;5008622;28;20026;-89
2022/09/20 13:35:11;;;;;;;9.68;3.25;;;15.10;82.70;;;;;;5012208;28;20026;-88
2022/09/20 13:37:49;;;;;;;6.47;2.92;;;15.00;82.60;;;;;;5006875;28;20530;-88
2022/09/20 13:40:21;;;;;;;10.15;5.18;;;15.00;82.30;;;;;;5032386;28;20154;-88
2022/09/20 13:42:58;;;;;;;5.72;3.97;;;14.90;82.10;;;;;;5008360;28;20434;-91
2022/09/20 13:45:24;;;;;;;;;;;14.90;82.70;;;;;;5024150;28;20535;-88
2022/09/20 13:47:53;;;;;;;4.30;2.60;;;14.90;82.60;;;;;;5008504;28;20194;-89
2022/09/20 13:50:30;;;;;;;7.20;3.40;;;14.80;82.80;;;;;;5011858;28;20084;-90
2022/09/20 13:52:59;;;;;;;5.07;2.70;;;14.90;83.20;;;;;;5034308;28;20051;-89
2022/09/20 13:55:28;;;;;;;4.60;3.35;;;15.00;83.10;;;;;;5024742;28;20092;-89
2022/09/20 13:57:56;;;;;;;6.22;2.80;;;15.00;82.80;;;;;;5008024;28;20024;-88
2022/09/20 14:00:24;;;;;;;4.05;3.05;;;15.00;82.60;;;;;;5034151;28;20052;-89
2022/09/20 14:02:55;;;;;;;7.13;3.88;;;15.00;82.20;;;;;;5015054;28;20037;-88
2022/09/20 14:05:25;;;;;;;4.32;2.25;;;15.00;82.50;;;;;;5006624;28;20025;-89